Time;durP1;ratioP1;P1;durP2;ratioP2;P2;SDS_P1;SDS_P2;PMS_P1;PMS_P2;Temp;Humidity;BMP_temperature;BMP_pressure;BME280_temperature;BME280_humidity;BME280_pressure;Samples;Min_cycle;Max_cycle;Signal;HPM_P1;HPM_P2
2021/12/02 00:01:31;;;;;;;3.40;2.67;;;;;;;4.69;100.00;96242.13;4326532;33;20044;-70
2021/12/02 00:03:58;;;;;;;5.87;3.20;;;;;;;4.49;100.00;96191.66;4326737;33;20040;-71
2021/12/02 00:06:26;;;;;;;4.72;3.00;;;;;;;4.78;100.00;96222.84;4326895;33;20367;-70
2021/12/02 00:08:53;;;;;;;5.78;3.08;;;;;;;4.69;100.00;96220.78;4322527;33;20432;-70
2021/12/02 00:11:20;;;;;;;6.05;2.95;;;;;;;4.76;100.00;96230.34;4315527;33;20086;-73
2021/12/02 00:21:24;;;;;;;8.55;3.15;;;;;;;4.87;100.00;96223.84;4322240;33;20172;-71
2021/12/02 00:24:04;;;;;;;6.30;2.80;;;;;;;4.85;100.00;96217.97;4326075;33;20118;-71
2021/12/02 00:26:34;;;;;;;7.70;3.50;;;;;;;4.90;100.00;96223.28;4323689;33;20099;-70
2021/12/02 00:29:02;;;;;;;5.35;3.37;;;;;;;4.89;100.00;96213.69;4323381;33;20074;-71
2021/12/02 00:31:32;;;;;;;6.05;4.12;;;;;;;4.85;100.00;96228.63;4324945;33;20044;-70
2021/12/02 00:34:01;;;;;;;4.35;3.37;;;;;;;4.52;100.00;96167.13;4322756;33;20070;-70
2021/12/02 00:36:34;;;;;;;5.12;2.92;;;;;;;4.60;100.00;96174.50;4323845;33;20036;-71
2021/12/02 00:39:07;;;;;;;7.55;3.45;;;;;;;4.93;100.00;96209.38;4312211;33;20051;-71
2021/12/02 00:41:33;;;;;;;5.78;2.78;;;;;;;4.90;100.00;96210.72;4326186;33;20450;-71
2021/12/02 00:44:00;;;;;;;5.72;3.20;;;;;;;4.93;100.00;96209.38;4325476;33;20029;-71
2021/12/02 00:46:33;;;;;;;5.28;3.40;;;;;;;4.98;100.00;96217.31;4323957;33;20071;-71
2021/12/02 00:49:03;;;;;;;3.83;2.55;;;;;;;4.71;100.00;96191.97;4324009;33;20040;-73
2021/12/02 00:51:35;;;;;;;6.65;2.95;;;;;;;4.93;100.00;96208.56;4325098;33;20401;-72
2021/12/02 00:54:05;;;;;;;3.58;2.97;;;;;;;5.09;100.00;96202.03;4325701;33;20058;-71
2021/12/02 00:56:33;;;;;;;5.72;2.80;;;;;;;4.97;100.00;96191.72;4325180;33;20049;-71
2021/12/02 00:59:00;;;;;;;2.95;2.15;;;;;;;5.05;100.00;96196.44;4325178;33;20449;-71
2021/12/02 01:01:33;;;;;;;3.97;2.50;;;;;;;4.80;100.00;96156.72;4325996;33;20444;-71
2021/12/02 01:04:03;;;;;;;4.68;2.50;;;;;;;4.90;100.00;96193.94;4324549;33;20115;-71
2021/12/02 01:06:36;;;;;;;4.82;2.62;;;;;;;4.93;100.00;96177.38;4322873;33;20070;-71
2021/12/02 01:11:41;;;;;;;6.93;2.58;;;;;;;4.90;100.00;96172.63;4328658;33;20040;-71
2021/12/02 01:14:09;;;;;;;4.62;3.15;;;;;;;4.94;100.00;96183.50;4328426;33;20506;-71
2021/12/02 01:16:36;;;;;;;5.68;2.45;;;;;;;5.22;100.00;96221.88;4312087;33;20025;-71
2021/12/02 01:19:04;;;;;;;3.92;2.28;;;;;;;5.13;100.00;96212.91;4328758;33;20037;-70
2021/12/02 01:21:31;;;;;;;4.87;2.45;;;;;;;4.93;100.00;96156.06;4328687;33;20468;-70
2021/12/02 01:24:00;;;;;;;3.85;2.22;;;;;;;5.12;100.00;96196.09;4326759;33;20374;-70
2021/12/02 01:26:29;;;;;;;2.28;1.87;;;;;;;4.96;100.00;96176.78;4326380;33;20062;-71
2021/12/02 01:28:57;;;;;;;3.28;1.95;;;;;;;5.21;100.00;96204.28;4328431;33;20459;-70
2021/12/02 01:31:27;;;;;;;3.90;2.42;;;;;;;5.08;100.00;96189.75;4328474;33;20072;-70
2021/12/02 01:33:55;;;;;;;2.22;2.03;;;;;;;5.17;100.00;96192.56;4328948;33;20171;-70
2021/12/02 01:36:23;;;;;;;4.20;2.10;;;;;;;5.00;100.00;96166.38;4326763;33;20453;-71
2021/12/02 01:38:52;;;;;;;4.30;2.30;;;;;;;5.14;100.00;96182.47;4328195;33;20086;-70
2021/12/02 01:41:25;;;;;;;6.47;2.53;;;;;;;5.02;100.00;96169.53;4328221;33;20432;-70
2021/12/02 01:43:53;;;;;;;3.15;2.35;;;;;;;5.30;100.00;96205.25;4328436;33;20070;-70
2021/12/02 01:46:23;;;;;;;2.60;2.20;;;;;;;5.16;100.00;96180.34;4326124;33;20059;-72
2021/12/02 01:49:03;;;;;;;4.70;2.28;;;;;;;5.20;100.00;96208.00;4328273;33;20060;-71
2021/12/02 01:51:48;;;;;;;2.85;2.12;;;;;;;5.20;100.00;96213.34;4327778;33;20081;-71
2021/12/02 01:54:21;;;;;;;3.95;2.40;;;;;;;5.00;100.00;96164.50;4328223;33;20061;-71
2021/12/02 01:56:51;;;;;;;2.37;1.87;;;;;;;5.22;100.00;96205.87;4314344;33;20037;-71
2021/12/02 01:59:23;;;;;;;10.57;2.45;;;;;;;5.15;100.00;96200.06;4328425;33;20067;-71
2021/12/02 02:01:55;;;;;;;3.00;2.50;;;;;;;5.19;100.00;96217.12;4324177;33;20068;-72
2021/12/02 02:04:23;;;;;;;3.08;1.48;;;;;;;5.27;100.00;96208.47;4326608;33;20360;-71
2021/12/02 02:06:52;;;;;;;2.97;2.33;;;;;;;4.89;100.00;96165.69;4327658;33;20078;-71
2021/12/02 02:09:20;;;;;;;5.62;2.80;;;;;;;5.12;100.00;96200.63;4328028;33;20388;-71
2021/12/02 02:11:47;;;;;;;8.32;1.77;;;;;;;5.09;100.00;96208.13;4313096;33;20062;-71
2021/12/02 02:14:14;;;;;;;3.75;2.05;;;;;;;5.30;100.00;96201.75;4327953;33;20443;-71
2021/12/02 02:16:41;;;;;;;6.75;2.70;;;;;;;5.37;100.00;96203.00;4327948;33;20040;-71
2021/12/02 02:19:11;;;;;;;6.57;2.08;;;;;;;5.22;100.00;96176.53;4327169;33;20044;-71
2021/12/02 02:21:38;;;;;;;5.00;1.95;;;;;;;5.39;100.00;96187.53;4324435;33;20036;-71
2021/12/02 02:24:07;;;;;;;4.95;2.05;;;;;;;5.43;100.00;96212.53;4327547;33;20078;-72
2021/12/02 02:26:36;;;;;;;2.67;1.10;;;;;;;5.51;100.00;96202.34;4314450;33;20045;-72
2021/12/02 02:29:07;;;;;;;4.15;1.92;;;;;;;5.37;100.00;96184.34;4325874;33;20071;-72
2021/12/02 02:31:37;;;;;;;2.00;1.80;;;;;;;5.67;100.00;96190.37;4311841;33;20358;-72
2021/12/02 02:34:04;;;;;;;5.28;1.98;;;;;;;5.46;100.00;96150.59;4313460;33;20185;-72
2021/12/02 02:36:34;;;;;;;4.75;1.42;;;;;;;5.43;100.00;96169.84;4313007;33;20037;-72
2021/12/02 02:39:02;;;;;;;1.77;1.62;;;;;;;5.65;100.00;96187.22;4320994;33;20383;-71
2021/12/02 02:41:39;;;;;;;3.47;2.00;;;;;;;5.67;100.00;96190.37;4325600;33;20062;-72
2021/12/02 02:44:08;;;;;;;1.48;1.40;;;;;;;5.63;100.00;96184.00;4327441;33;20040;-71
2021/12/02 02:46:38;;;;;;;2.72;1.60;;;;;;;5.52;100.00;96198.56;4327244;33;20107;-71
2021/12/02 02:49:08;;;;;;;4.07;3.08;;;;;;;5.38;100.00;96137.13;4325366;33;20037;-72
2021/12/02 02:51:36;;;;;;;1.25;1.25;;;;;;;5.53;100.00;96173.47;4327109;33;20044;-71
2021/12/02 02:54:05;;;;;;;3.50;1.50;;;;;;;5.42;100.00;96184.25;4326979;33;20062;-72
2021/12/02 02:56:35;;;;;;;2.65;1.37;;;;;;;5.08;100.00;96131.06;4327127;33;20036;-71
2021/12/02 02:59:32;;;;;;;2.85;1.62;;;;;;;5.38;100.00;96151.25;4326811;33;20033;-71
2021/12/02 03:04:54;;;;;;;1.02;0.93;;;;;;;5.40;100.00;96174.97;4325610;33;20040;-72
2021/12/02 03:07:38;;;;;;;0.93;0.88;;;;;;;5.37;100.00;96168.31;4327158;33;20367;-71
2021/12/02 03:12:43;;;;;;;1.23;1.17;;;;;;;5.30;100.00;96169.75;4326803;33;20060;-71
2021/12/02 03:17:36;;;;;;;1.70;1.40;;;;;;;5.35;100.00;96194.50;4326665;33;20032;-71
2021/12/02 03:20:03;;;;;;;1.15;1.08;;;;;;;5.06;100.00;96167.91;4326098;33;20040;-72
2021/12/02 03:22:31;;;;;;;3.35;1.77;;;;;;;5.36;100.00;96190.78;4326089;33;20045;-71
2021/12/02 03:24:58;;;;;;;4.53;1.58;;;;;;;5.21;100.00;96188.28;4326971;33;20037;-71
2021/12/02 03:27:26;;;;;;;1.37;1.12;;;;;;;4.98;100.00;96156.00;4324070;33;20512;-71
2021/12/02 03:29:52;;;;;;;1.58;1.35;;;;;;;5.06;100.00;96171.38;4326200;33;20041;-70
2021/12/02 03:32:19;;;;;;;1.00;1.00;;;;;;;5.31;100.00;96206.81;4324023;33;20067;-71
2021/12/02 03:34:45;;;;;;;1.77;1.23;;;;;;;5.18;100.00;96205.63;4313824;33;20052;-71
2021/12/02 03:37:13;;;;;;;3.30;1.23;;;;;;;5.27;100.00;96205.81;4325509;33;20040;-70
2021/12/02 03:39:39;;;;;;;1.12;1.12;;;;;;;4.99;100.00;96170.09;4327044;33;20036;-71
2021/12/02 03:42:06;;;;;;;2.65;1.65;;;;;;;5.13;100.00;96213.69;4325731;33;20412;-73
2021/12/02 03:44:39;;;;;;;1.48;1.10;;;;;;;4.83;100.00;96188.13;4326293;33;20394;-70
2021/12/02 03:47:06;;;;;;;1.20;1.10;;;;;;;5.05;100.00;96244.44;4326996;33;20058;-70
2021/12/02 03:49:33;;;;;;;1.35;1.02;;;;;;;4.82;100.00;96194.53;4326495;33;20044;-70
2021/12/02 03:51:59;;;;;;;1.48;1.37;;;;;;;5.03;100.00;96227.94;4325772;33;20068;-71
2021/12/02 03:54:26;;;;;;;1.30;1.00;;;;;;;5.01;100.00;96232.75;4312002;33;20037;-71
2021/12/02 03:56:53;;;;;;;2.75;1.23;;;;;;;4.77;100.00;96216.72;4326302;33;20051;-71
2021/12/02 03:59:20;;;;;;;1.17;1.10;;;;;;;4.79;100.00;96219.13;4325531;33;20040;-70
2021/12/02 04:01:47;;;;;;;2.08;1.35;;;;;;;5.05;100.00;96244.44;4326457;33;20037;-71
2021/12/02 04:04:13;;;;;;;3.28;1.02;;;;;;;4.70;100.00;96198.37;4325173;33;20049;-72
2021/12/02 04:06:40;;;;;;;1.20;1.10;;;;;;;4.99;100.00;96240.22;4326453;33;20082;-71
2021/12/02 04:09:14;;;;;;;1.25;1.17;;;;;;;4.99;100.00;96250.09;4325948;33;20037;-71
2021/12/02 04:11:53;;;;;;;3.62;1.33;;;;;;;4.85;100.00;96234.78;4324894;33;20801;-71
2021/12/02 04:17:09;;;;;;;2.92;1.15;;;;;;;4.93;100.00;96252.03;4325630;33;20464;-72
2021/12/02 04:19:37;;;;;;;4.28;1.00;;;;;;;4.93;100.00;96252.03;4326017;33;20040;-72
2021/12/02 04:22:04;;;;;;;1.23;1.12;;;;;;;4.75;100.00;96212.75;4311191;33;20086;-72
2021/12/02 04:24:31;;;;;;;1.02;0.80;;;;;;;4.97;100.00;96253.06;4326265;33;20045;-71
2021/12/02 04:26:58;;;;;;;2.85;1.30;;;;;;;4.84;100.00;96253.72;4325996;33;20032;-71
2021/12/02 04:29:25;;;;;;;1.08;1.08;;;;;;;4.79;100.00;96233.22;4313035;33;20058;-71
2021/12/02 04:31:52;;;;;;;4.60;1.08;;;;;;;4.83;100.00;96252.91;4323934;33;20058;-72
2021/12/02 04:34:19;;;;;;;2.37;1.25;;;;;;;4.82;100.00;96245.19;4321288;33;20340;-72
2021/12/02 04:36:47;;;;;;;1.17;0.90;;;;;;;4.76;100.00;96251.66;4325826;33;20759;-72
2021/12/02 04:39:13;;;;;;;1.62;1.42;;;;;;;4.84;100.00;96283.06;4313200;33;20335;-72
2021/12/02 04:41:39;;;;;;;0.90;0.88;;;;;;;4.83;100.00;96270.78;4313854;33;20347;-72
2021/12/02 04:44:07;;;;;;;2.30;1.00;;;;;;;4.77;100.00;96263.91;4327648;33;20037;-72
2021/12/02 04:46:34;;;;;;;1.48;1.10;;;;;;;4.59;100.00;96239.53;4328216;33;20058;-72
2021/12/02 04:49:00;;;;;;;2.08;1.00;;;;;;;4.69;100.00;96275.94;4314412;33;20955;-72
2021/12/02 04:51:27;;;;;;;1.67;0.98;;;;;;;4.73;100.00;96282.34;4328952;33;20120;-72
2021/12/02 04:53:53;;;;;;;0.73;0.73;;;;;;;4.60;100.00;96283.75;4327478;33;20045;-72
2021/12/02 04:56:20;;;;;;;1.25;1.12;;;;;;;4.66;100.00;96298.66;4328228;33;20070;-72
2021/12/02 04:58:47;;;;;;;2.47;1.17;;;;;;;4.61;100.00;96300.53;4326152;33;20044;-72
2021/12/02 05:01:13;;;;;;;0.65;0.65;;;;;;;4.65;100.00;96299.72;4328086;33;20418;-72
2021/12/02 05:03:40;;;;;;;0.60;0.60;;;;;;;4.37;100.00;96291.38;4328089;33;20066;-71
2021/12/02 05:06:07;;;;;;;0.60;0.60;;;;;;;4.44;100.00;96271.63;4328823;33;20370;-72
2021/12/02 05:08:33;;;;;;;0.73;0.65;;;;;;;4.60;100.00;96307.75;4326517;33;20362;-72
2021/12/02 05:10:59;;;;;;;1.08;0.95;;;;;;;4.24;100.00;96260.03;4328227;33;20044;-72
2021/12/02 05:13:26;;;;;;;0.88;0.88;;;;;;;4.48;100.00;96316.09;4316186;33;20045;-73
2021/12/02 05:15:52;;;;;;;0.90;0.90;;;;;;;4.47;100.00;96319.03;4315780;33;20032;-72
2021/12/02 05:18:19;;;;;;;1.17;0.90;;;;;;;4.36;100.00;96307.66;4328367;33;20066;-72
2021/12/02 05:20:47;;;;;;;1.02;0.55;;;;;;;4.26;100.00;96303.19;4327136;33;20422;-73
2021/12/02 05:23:14;;;;;;;0.85;0.85;;;;;;;4.06;100.00;96266.81;4326270;33;20422;-70
2021/12/02 05:25:43;;;;;;;0.40;0.40;;;;;;;4.20;100.00;96325.59;4317547;33;20445;-71
2021/12/02 05:28:18;;;;;;;1.25;0.60;;;;;;;4.04;100.00;96295.56;4328607;33;20055;-71
2021/12/02 05:30:46;;;;;;;0.98;0.90;;;;;;;4.22;100.00;96344.75;4323075;33;20090;-72
2021/12/02 05:33:13;;;;;;;1.25;0.70;;;;;;;3.95;100.00;96287.34;4326996;33;20079;-70
2021/12/02 05:35:40;;;;;;;0.88;0.50;;;;;;;4.00;100.00;96369.88;4327333;33;20048;-70
2021/12/02 05:38:06;;;;;;;0.88;0.88;;;;;;;4.05;100.00;96344.28;4319899;33;20041;-71
2021/12/02 05:40:33;;;;;;;2.45;1.05;;;;;;;3.99;100.00;96354.19;4327214;33;20056;-71
2021/12/02 05:43:00;;;;;;;4.32;1.67;;;;;;;3.96;100.00;96339.53;4312909;33;20044;-71
2021/12/02 05:45:27;;;;;;;1.42;1.10;;;;;;;4.02;100.00;96335.00;4327857;33;20058;-71
2021/12/02 05:47:53;;;;;;;2.22;0.88;;;;;;;3.93;100.00;96342.75;4326961;33;20036;-72
2021/12/02 05:50:20;;;;;;;3.17;0.70;;;;;;;3.81;100.00;96342.25;4328001;33;20044;-72
2021/12/02 05:52:47;;;;;;;0.82;0.80;;;;;;;3.87;100.00;96364.34;4325019;33;20036;-73
2021/12/02 05:55:14;;;;;;;2.87;1.50;;;;;;;3.55;100.00;96337.00;4328023;33;20048;-72
2021/12/02 05:57:40;;;;;;;0.90;0.90;;;;;;;3.74;100.00;96355.06;4327906;33;20041;-72
2021/12/02 06:00:08;;;;;;;3.12;1.27;;;;;;;3.58;100.00;96379.03;4314724;33;20029;-72
2021/12/02 06:02:38;;;;;;;1.05;0.70;;;;;;;3.51;100.00;96351.13;4326791;33;20395;-73
2021/12/02 06:05:06;;;;;;;1.95;0.85;;;;;;;3.59;100.00;96354.03;4327499;33;20096;-72
2021/12/02 06:07:33;;;;;;;2.87;0.70;;;;;;;3.69;100.00;96363.06;4328127;33;20037;-72
2021/12/02 06:09:59;;;;;;;3.92;0.80;;;;;;;3.37;100.00;96346.38;4327746;33;20033;-72
2021/12/02 06:12:26;;;;;;;0.65;0.65;;;;;;;3.47;100.00;96374.03;4327588;33;20453;-72
2021/12/02 06:14:53;;;;;;;0.70;0.50;;;;;;;3.21;100.00;96353.56;4324919;33;20032;-72
2021/12/02 06:17:19;;;;;;;2.87;0.90;;;;;;;3.20;100.00;96351.19;4313927;33;20432;-71
2021/12/02 06:19:46;;;;;;;2.17;1.15;;;;;;;3.35;100.00;96348.50;4314580;33;20033;-73
2021/12/02 06:22:13;;;;;;;2.47;1.17;;;;;;;3.19;100.00;96354.91;4327632;33;20062;-70
2021/12/02 06:24:53;;;;;;;2.33;1.23;;;;;;;3.50;100.00;96382.25;4326825;33;20036;-71
2021/12/02 06:27:20;;;;;;;2.20;1.08;;;;;;;3.13;100.00;96351.47;4327230;33;20410;-71
2021/12/02 06:29:46;;;;;;;3.10;1.00;;;;;;;3.32;100.00;96417.38;4327818;33;20041;-71
2021/12/02 06:32:13;;;;;;;1.75;0.93;;;;;;;3.41;100.00;96410.47;4314266;33;20040;-71
2021/12/02 06:34:40;;;;;;;4.37;1.00;;;;;;;3.28;100.00;96401.94;4312914;33;20066;-72
2021/12/02 06:37:06;;;;;;;2.80;0.80;;;;;;;3.00;100.00;96351.97;4327045;33;20305;-70
2021/12/02 06:39:32;;;;;;;1.37;0.80;;;;;;;3.04;100.00;96376.97;4313954;33;20058;-70
2021/12/02 06:41:59;;;;;;;1.90;0.80;;;;;;;3.41;100.00;96399.81;4327002;33;20410;-70
2021/12/02 06:44:27;;;;;;;2.62;0.98;;;;;;;3.32;100.00;96401.41;4326452;33;20344;-69
2021/12/02 06:46:53;;;;;;;1.35;0.75;;;;;;;3.37;100.00;96388.13;4326224;33;20059;-71
2021/12/02 06:49:20;;;;;;;5.90;0.90;;;;;;;3.27;100.00;96400.38;4326741;33;20067;-70
2021/12/02 06:51:47;;;;;;;0.60;0.60;;;;;;;3.28;100.00;96399.28;4313687;33;20070;-70
2021/12/02 06:54:13;;;;;;;0.90;0.90;;;;;;;3.40;100.00;96415.00;4327357;33;20032;-70
2021/12/02 06:56:40;;;;;;;0.70;0.70;;;;;;;3.41;100.00;96411.25;4325303;33;20187;-70
2021/12/02 06:59:06;;;;;;;2.60;1.08;;;;;;;3.44;100.00;96399.28;4324304;33;20067;-71
2021/12/02 07:01:34;;;;;;;0.55;0.55;;;;;;;3.47;100.00;96398.75;4327208;33;20078;-70
2021/12/02 07:04:02;;;;;;;1.70;1.20;;;;;;;3.40;100.00;96424.84;4323800;33;20052;-70
2021/12/02 07:06:28;;;;;;;1.15;0.90;;;;;;;3.41;100.00;96405.13;4326881;33;20370;-70
2021/12/02 07:08:55;;;;;;;4.28;1.02;;;;;;;3.37;100.00;96420.84;4327182;33;20054;-71
2021/12/02 07:11:21;;;;;;;0.80;0.75;;;;;;;3.42;100.00;96428.03;4323567;33;20048;-70
2021/12/02 07:13:50;;;;;;;1.65;0.98;;;;;;;3.11;100.00;96384.69;4326726;33;20074;-69
2021/12/02 07:16:16;;;;;;;4.53;0.95;;;;;;;3.33;100.00;96424.31;4314486;33;20071;-71
2021/12/02 07:18:47;;;;;;;1.05;0.93;;;;;;;3.30;100.00;96430.16;4326170;33;20040;-71
2021/12/02 07:21:14;;;;;;;12.05;3.12;;;;;;;3.43;100.00;96424.28;4324149;33;20044;-71
2021/12/02 07:23:40;;;;;;;1.73;1.10;;;;;;;3.10;100.00;96391.88;4325791;33;20048;-70
2021/12/02 07:26:07;;;;;;;5.53;1.42;;;;;;;3.38;100.00;96421.63;4326096;33;20055;-70
2021/12/02 07:28:36;;;;;;;1.58;1.35;;;;;;;3.07;100.00;96405.69;4326443;33;20386;-70
2021/12/02 07:31:05;;;;;;;2.65;1.23;;;;;;;3.40;100.00;96448.78;4310635;33;20024;-72
2021/12/02 07:33:39;;;;;;;2.58;1.42;;;;;;;3.38;100.00;96432.28;4324758;33;20231;-71
2021/12/02 07:36:06;;;;;;;1.58;1.00;;;;;;;3.40;100.00;96438.16;4322476;33;20524;-70
2021/12/02 07:38:35;;;;;;;4.78;1.75;;;;;;;2.98;100.00;96370.84;4320837;33;20049;-70
2021/12/02 07:41:04;;;;;;;2.03;1.00;;;;;;;3.36;100.00;96445.84;4304950;33;20044;-71
2021/12/02 07:43:36;;;;;;;1.95;1.52;;;;;;;3.39;100.00;96455.16;4322548;33;20062;-71
2021/12/02 07:46:05;;;;;;;4.37;1.08;;;;;;;3.51;100.00;96458.34;4320948;33;20075;-70
2021/12/02 07:48:31;;;;;;;1.35;0.98;;;;;;;3.46;100.00;96445.03;4324362;33;20036;-70
2021/12/02 07:51:12;;;;;;;3.45;2.28;;;;;;;3.22;100.00;96436.78;4324507;33;20086;-72
2021/12/02 07:53:40;;;;;;;2.30;1.77;;;;;;;3.32;100.00;96441.31;4325076;33;20061;-72
2021/12/02 07:56:09;;;;;;;1.67;1.10;;;;;;;3.55;100.00;96495.87;4324718;33;20092;-72
2021/12/02 07:58:40;;;;;;;2.22;1.83;;;;;;;3.64;100.00;96500.38;4311669;33;20106;-71
2021/12/02 08:01:07;;;;;;;3.60;2.17;;;;;;;3.60;100.00;96491.31;4322970;33;20077;-72
2021/12/02 08:03:33;;;;;;;13.40;4.93;;;;;;;3.55;100.00;96504.63;4325920;33;20800;-72
2021/12/02 08:06:00;;;;;;;0.98;0.98;;;;;;;3.42;100.00;96491.88;4324365;33;20134;-73
2021/12/02 08:08:26;;;;;;;2.50;1.33;;;;;;;3.47;100.00;96505.16;4324234;33;20044;-72
2021/12/02 08:10:53;;;;;;;3.65;1.98;;;;;;;3.25;100.00;96466.31;4323759;33;20114;-71
2021/12/02 08:13:29;;;;;;;7.22;1.87;;;;;;;3.16;100.00;96457.28;4307483;33;20074;-73
2021/12/02 08:15:57;;;;;;;3.70;1.67;;;;;;;3.44;100.00;96500.38;4305173;33;20048;-72
2021/12/02 08:18:24;;;;;;;2.80;1.48;;;;;;;3.43;100.00;96502.25;4326359;33;20431;-73
2021/12/02 08:20:51;;;;;;;4.12;1.23;;;;;;;3.35;100.00;96507.28;4314043;33;20076;-72
2021/12/02 08:23:18;;;;;;;5.05;1.45;;;;;;;3.36;100.00;96508.88;4321317;33;20085;-73
2021/12/02 08:25:44;;;;;;;3.10;1.73;;;;;;;3.04;100.00;96481.44;4326931;33;20048;-73
2021/12/02 08:28:11;;;;;;;4.10;1.75;;;;;;;2.97;100.00;96454.34;4326207;33;20055;-71
2021/12/02 08:30:39;;;;;;;1.27;0.73;;;;;;;2.86;100.00;96445.53;4327936;33;20351;-71
2021/12/02 08:33:14;;;;;;;8.10;2.70;;;;;;;3.42;100.00;96523.78;4323635;33;20061;-71
2021/12/02 08:35:41;;;;;;;2.95;1.65;;;;;;;3.44;100.00;96517.13;4327587;33;20285;-70
2021/12/02 08:38:11;;;;;;;1.83;1.27;;;;;;;3.40;100.00;96541.88;4326324;33;20066;-71
2021/12/02 08:40:40;;;;;;;1.92;1.60;;;;;;;3.55;100.00;96523.25;4326999;33;20060;-71
2021/12/02 08:43:11;;;;;;;1.70;1.40;;;;;;;3.54;100.00;96504.91;4320825;33;20059;-71
2021/12/02 08:45:40;;;;;;;2.50;0.80;;;;;;;3.59;100.00;96544.81;4326551;33;20084;-71
2021/12/02 08:48:08;;;;;;;2.95;1.55;;;;;;;3.32;100.00;96497.16;4323172;33;20044;-72
2021/12/02 08:50:36;;;;;;;3.70;1.87;;;;;;;3.67;100.00;96541.63;4328384;33;20407;-73
2021/12/02 08:53:03;;;;;;;8.38;1.23;;;;;;;3.35;100.00;96491.31;4326966;33;20040;-73
2021/12/02 08:55:31;;;;;;;1.50;1.23;;;;;;;3.54;100.00;96542.16;4312818;33;20045;-73
2021/12/02 08:57:59;;;;;;;4.28;1.10;;;;;;;3.48;100.00;96543.22;4327537;33;20312;-72
2021/12/02 09:00:33;;;;;;;1.70;1.35;;;;;;;3.49;100.00;96534.16;4328343;33;20386;-73
2021/12/02 09:03:00;;;;;;;3.10;1.17;;;;;;;3.24;100.00;96501.97;4328413;33;20066;-72
2021/12/02 09:05:27;;;;;;;4.20;1.27;;;;;;;3.53;100.00;96549.34;4308763;33;20040;-73
2021/12/02 09:07:53;;;;;;;3.58;1.10;;;;;;;3.58;100.00;96538.69;4321968;33;20052;-72
2021/12/02 09:10:25;;;;;;;2.95;1.20;;;;;;;3.50;100.00;96583.66;4325143;33;20097;-71
2021/12/02 09:12:52;;;;;;;0.88;0.88;;;;;;;3.54;100.00;96548.28;4327470;33;20040;-72
2021/12/02 09:15:19;;;;;;;2.92;0.90;;;;;;;3.59;100.00;96555.44;4324820;33;20066;-72
2021/12/02 09:17:46;;;;;;;3.45;1.23;;;;;;;3.30;100.00;96523.25;4327101;33;20096;-73
2021/12/02 09:20:15;;;;;;;3.17;1.40;;;;;;;3.43;100.00;96562.63;4327552;33;20032;-74
2021/12/02 09:22:45;;;;;;;8.35;1.95;;;;;;;3.42;100.00;96555.72;4327297;33;20390;-73
2021/12/02 09:25:15;;;;;;;0.98;0.88;;;;;;;3.27;100.00;96548.50;4324991;33;20051;-75
2021/12/02 09:27:41;;;;;;;1.70;1.37;;;;;;;3.44;100.00;96569.53;4323673;33;20904;-72
2021/12/02 09:30:08;;;;;;;1.50;1.10;;;;;;;3.44;100.00;96601.47;4326499;33;20044;-73
2021/12/02 09:32:36;;;;;;;0.93;0.80;;;;;;;3.48;100.00;96575.94;4322964;33;20078;-72
2021/12/02 09:35:03;;;;;;;6.22;1.35;;;;;;;3.41;100.00;96570.06;4324577;33;20091;-73
2021/12/02 09:37:30;;;;;;;3.28;1.70;;;;;;;3.57;100.00;96560.25;4327097;33;20061;-73
2021/12/02 09:39:57;;;;;;;2.87;1.90;;;;;;;3.63;100.00;96559.19;4327598;33;20514;-72
2021/12/02 09:42:26;;;;;;;2.22;1.02;;;;;;;3.51;100.00;96553.31;4315001;33;20054;-74
2021/12/02 09:44:58;;;;;;;6.47;2.30;;;;;;;3.64;100.00;96558.94;4326872;33;20066;-73
2021/12/02 09:47:29;;;;;;;2.55;1.58;;;;;;;3.48;100.00;96549.34;4313743;33;20056;-73
2021/12/02 09:50:00;;;;;;;4.57;2.08;;;;;;;3.40;100.00;96525.94;4326885;33;20036;-73
2021/12/02 09:52:38;;;;;;;2.85;1.33;;;;;;;3.77;100.00;96546.16;4326180;33;20049;-72
2021/12/02 09:55:18;;;;;;;2.42;1.02;;;;;;;3.86;100.00;96586.34;4325623;33;20372;-73
2021/12/02 09:57:53;;;;;;;1.85;1.20;;;;;;;3.84;100.00;96610.56;4327183;33;20040;-73
2021/12/02 10:00:35;;;;;;;2.87;1.00;;;;;;;3.79;100.00;96575.97;4327407;33;20070;-72
2021/12/02 10:03:06;;;;;;;1.50;1.20;;;;;;;3.71;100.00;96589.81;4325930;33;20052;-73
2021/12/02 10:05:42;;;;;;;4.43;2.03;;;;;;;3.94;100.00;96568.00;4325045;33;20049;-73
2021/12/02 10:08:16;;;;;;;3.28;1.27;;;;;;;3.67;100.00;96546.16;4324970;33;20049;-73
2021/12/02 10:11:02;;;;;;;2.83;1.23;;;;;;;3.91;100.00;96584.50;4327093;33;20049;-71
2021/12/02 10:13:39;;;;;;;1.60;1.27;;;;;;;3.92;100.00;96586.06;4327952;33;20122;-71
2021/12/02 10:16:24;;;;;;;4.55;1.35;;;;;;;3.88;100.00;96589.53;4310391;33;20041;-72
2021/12/02 10:21:27;;;;;;;3.78;0.90;;;;;;;3.97;100.00;96575.44;4319279;33;20078;-72
2021/12/02 10:24:00;;;;;;;1.08;0.93;;;;;;;4.01;100.00;96583.69;4308568;33;20108;-74
2021/12/02 10:26:27;;;;;;;7.50;1.52;;;;;;;3.85;100.00;96588.22;4326526;33;20090;-73
2021/12/02 10:28:53;;;;;;;6.50;1.05;;;;;;;4.12;100.00;96565.84;4327972;33;20054;-72
2021/12/02 10:31:24;;;;;;;6.43;1.80;;;;;;;4.05;100.00;96583.94;4313623;33;20368;-72
2021/12/02 10:33:59;;;;;;;5.15;2.40;;;;;;;3.86;100.00;96568.53;4325704;33;20054;-71
2021/12/02 10:36:39;;;;;;;3.17;1.30;;;;;;;3.94;100.00;96599.94;4312882;33;20071;-72
2021/12/02 10:39:19;;;;;;;4.50;1.17;;;;;;;3.87;100.00;96618.03;4327742;33;20079;-72
2021/12/02 10:41:59;;;;;;;2.25;0.95;;;;;;;3.84;100.00;96578.63;4325571;33;20086;-72
2021/12/02 10:44:33;;;;;;;1.45;1.00;;;;;;;3.64;100.00;96553.59;4326665;33;20041;-72
2021/12/02 10:47:15;;;;;;;2.60;1.20;;;;;;;3.93;100.00;96634.81;4324565;33;20078;-72
2021/12/02 10:49:48;;;;;;;1.48;1.05;;;;;;;3.65;100.00;96554.41;4325885;33;20047;-72
2021/12/02 10:52:28;;;;;;;1.10;0.70;;;;;;;3.61;100.00;96543.50;4312219;33;20048;-72
2021/12/02 10:55:01;;;;;;;1.60;0.80;;;;;;;3.82;100.00;96600.19;4318772;33;20107;-71
2021/12/02 10:57:30;;;;;;;2.50;0.65;;;;;;;3.86;100.00;96592.50;4325247;33;20179;-71
2021/12/02 11:00:03;;;;;;;0.43;0.43;;;;;;;3.85;100.00;96619.38;4313635;33;20098;-72
2021/12/02 11:02:32;;;;;;;4.40;1.08;;;;;;;3.84;100.00;96605.25;4326101;33;20044;-72
2021/12/02 11:05:05;;;;;;;1.12;0.90;;;;;;;3.96;100.00;96613.78;4315237;33;20037;-72
2021/12/02 11:07:38;;;;;;;1.55;0.93;;;;;;;4.14;100.00;96614.31;4312255;33;20053;-73
2021/12/02 11:11:29;;;;;;;6.62;1.10;;;;;;;4.32;100.00;96612.94;4430231;32;20580;-73
2021/12/02 11:13:57;;;;;;;11.98;2.58;;;;;;;4.32;100.00;96612.94;4416733;32;20096;-73
2021/12/02 11:16:34;;;;;;;5.75;2.58;;;;;;;3.82;100.00;96634.78;4408927;32;20108;-73
2021/12/02 11:19:20;;;;;;;1.33;1.12;;;;;;;3.79;100.00;96632.66;4419582;32;20095;-73
2021/12/02 11:21:47;;;;;;;10.40;3.22;;;;;;;3.65;100.00;96612.94;4425578;32;20055;-72
2021/12/02 11:24:30;;;;;;;6.43;2.20;;;;;;;3.70;100.00;96650.22;4412924;32;21063;-72
2021/12/02 11:27:06;;;;;;;1.80;1.30;;;;;;;3.97;100.00;96610.06;4412216;32;20380;-73
2021/12/02 11:29:51;;;;;;;3.58;1.55;;;;;;;3.93;100.00;96598.34;4412794;32;20046;-71
2021/12/02 11:32:30;;;;;;;1.60;1.02;;;;;;;3.88;100.00;96634.78;4415976;32;20042;-73
2021/12/02 11:35:14;;;;;;;1.42;1.33;;;;;;;4.05;100.00;96642.53;4426775;32;20056;-72
2021/12/02 11:37:43;;;;;;;3.92;1.20;;;;;;;3.94;100.00;96625.75;4429831;32;20039;-73
2021/12/02 11:40:27;;;;;;;2.25;1.15;;;;;;;4.15;100.00;96669.19;4424341;32;20166;-72
2021/12/02 11:42:54;;;;;;;1.12;0.98;;;;;;;4.08;100.00;96605.50;4424475;32;20554;-72
2021/12/02 11:45:24;;;;;;;3.90;1.02;;;;;;;4.16;100.00;96665.44;4425859;32;20068;-72
2021/12/02 11:47:53;;;;;;;2.12;1.25;;;;;;;4.12;100.00;96632.44;4429280;32;20432;-75
2021/12/02 11:50:22;;;;;;;2.55;0.93;;;;;;;4.24;100.00;96675.56;4427626;32;20461;-71
2021/12/02 11:52:49;;;;;;;4.28;1.10;;;;;;;4.03;100.00;96727.22;4416244;32;20056;-72
2021/12/02 11:55:19;;;;;;;4.05;1.05;;;;;;;3.81;100.00;96665.16;4399138;32;20050;-73
2021/12/02 11:57:47;;;;;;;1.27;0.73;;;;;;;4.16;100.00;96639.63;4414003;32;20034;-72
2021/12/02 12:00:18;;;;;;;1.48;0.62;;;;;;;4.12;100.00;96736.28;4415628;32;20072;-72
2021/12/02 12:02:54;;;;;;;0.68;0.68;;;;;;;4.23;100.00;96692.63;4410847;32;20170;-71
2021/12/02 12:05:25;;;;;;;4.12;1.17;;;;;;;3.81;100.00;96696.28;4416175;32;20058;-73
2021/12/02 12:07:52;;;;;;;1.37;0.93;;;;;;;3.95;100.00;96681.41;4418280;32;20497;-73
2021/12/02 12:10:26;;;;;;;1.55;1.02;;;;;;;3.89;100.00;96677.13;4419737;32;20051;-70